sensor_id;sensor_type;location;lat;lon;timestamp;pressure;altitude;pressure_sealevel;temperature;humidity
9474;BME280;8865;47.636;7.692;2023-05-19T02:02:06;98491.16;;;12.76;nan
9474;BME280;8865;47.636;7.692;2023-05-19T02:05:13;98487.03;;;12.73;nan
9474;BME280;8865;47.636;7.692;2023-05-19T02:08:17;98483.84;;;12.69;nan
9474;BME280;8865;47.636;7.692;2023-05-19T02:10:56;98487.84;;;12.64;nan
9474;BME280;8865;47.636;7.692;2023-05-19T02:14:36;98494.38;;;12.60;nan
9474;BME280;8865;47.636;7.692;2023-05-19T02:18:08;98492.41;;;12.62;nan
9474;BME280;8865;47.636;7.692;2023-05-19T02:21:13;98492.69;;;12.59;nan
9474;BME280;8865;47.636;7.692;2023-05-19T02:24:10;98496.41;;;12.56;nan
9474;BME280;8865;47.636;7.692;2023-05-19T06:55:34;98514.47;;;15.19;nan
9474;BME280;8865;47.636;7.692;2023-05-19T06:58:06;98511.41;;;15.06;nan
9474;BME280;8865;47.636;7.692;2023-05-19T07:00:34;98518.66;;;15.04;nan
9474;BME280;8865;47.636;7.692;2023-05-19T07:03:02;98511.56;;;15.04;nan
9474;BME280;8865;47.636;7.692;2023-05-19T07:05:28;98510.63;;;15.13;nan
9474;BME280;8865;47.636;7.692;2023-05-19T07:07:54;98511.13;;;15.17;nan
9474;BME280;8865;47.636;7.692;2023-05-19T07:10:20;98510.81;;;15.20;nan
9474;BME280;8865;47.636;7.692;2023-05-19T07:12:46;98512.81;;;15.18;nan
9474;BME280;8865;47.636;7.692;2023-05-19T07:15:12;98514.09;;;15.14;nan
9474;BME280;8865;47.636;7.692;2023-05-19T07:17:38;98513.84;;;14.99;nan
9474;BME280;8865;47.636;7.692;2023-05-19T07:20:05;98505.78;;;15.00;nan
9474;BME280;8865;47.636;7.692;2023-05-19T07:22:31;98509.94;;;14.85;nan
9474;BME280;8865;47.636;7.692;2023-05-19T07:24:59;98506.53;;;14.93;nan
9474;BME280;8865;47.636;7.692;2023-05-19T07:27:26;98506.78;;;14.81;nan
9474;BME280;8865;47.636;7.692;2023-05-19T07:29:52;98501.59;;;14.72;nan
9474;BME280;8865;47.636;7.692;2023-05-19T07:32:18;98503.00;;;14.84;nan
9474;BME280;8865;47.636;7.692;2023-05-19T07:34:44;98503.22;;;14.73;nan
9474;BME280;8865;47.636;7.692;2023-05-19T07:37:10;98496.31;;;14.90;nan
9474;BME280;8865;47.636;7.692;2023-05-19T07:39:36;98496.56;;;15.05;nan
9474;BME280;8865;47.636;7.692;2023-05-19T07:42:03;98490.66;;;15.11;nan
9474;BME280;8865;47.636;7.692;2023-05-19T07:44:29;98493.09;;;15.30;nan
9474;BME280;8865;47.636;7.692;2023-05-19T07:46:56;98496.22;;;15.34;nan
9474;BME280;8865;47.636;7.692;2023-05-19T07:49:22;98484.94;;;15.50;nan
9474;BME280;8865;47.636;7.692;2023-05-19T07:51:48;98477.44;;;15.71;nan
9474;BME280;8865;47.636;7.692;2023-05-19T07:54:14;98480.66;;;15.83;nan
9474;BME280;8865;47.636;7.692;2023-05-19T07:56:40;98485.31;;;16.06;nan
9474;BME280;8865;47.636;7.692;2023-05-19T07:59:06;98476.41;;;16.15;nan
9474;BME280;8865;47.636;7.692;2023-05-19T08:01:32;98473.16;;;16.30;nan
9474;BME280;8865;47.636;7.692;2023-05-19T08:03:58;98472.81;;;16.41;nan
9474;BME280;8865;47.636;7.692;2023-05-19T08:06:24;98469.69;;;16.62;nan
9474;BME280;8865;47.636;7.692;2023-05-19T08:08:50;98464.25;;;16.64;nan
9474;BME280;8865;47.636;7.692;2023-05-19T08:11:17;98465.06;;;16.56;nan
9474;BME280;8865;47.636;7.692;2023-05-19T08:13:43;98465.22;;;16.38;nan
9474;BME280;8865;47.636;7.692;2023-05-19T08:16:09;98456.59;;;16.28;nan
9474;BME280;8865;47.636;7.692;2023-05-19T08:18:35;98455.97;;;16.42;nan
9474;BME280;8865;47.636;7.692;2023-05-19T08:21:01;98458.44;;;16.60;nan
9474;BME280;8865;47.636;7.692;2023-05-19T08:23:28;98452.13;;;16.86;nan
9474;BME280;8865;47.636;7.692;2023-05-19T08:25:54;98453.16;;;16.68;nan
9474;BME280;8865;47.636;7.692;2023-05-19T08:28:20;98449.81;;;16.83;nan
9474;BME280;8865;47.636;7.692;2023-05-19T08:30:47;98452.19;;;16.94;nan
9474;BME280;8865;47.636;7.692;2023-05-19T08:33:12;98445.88;;;16.95;nan
9474;BME280;8865;47.636;7.692;2023-05-19T08:35:39;98445.16;;;17.18;nan
9474;BME280;8865;47.636;7.692;2023-05-19T08:38:05;98441.16;;;17.30;nan
9474;BME280;8865;47.636;7.692;2023-05-19T08:40:32;98440.16;;;17.23;nan
9474;BME280;8865;47.636;7.692;2023-05-19T08:42:59;98440.66;;;17.66;nan
9474;BME280;8865;47.636;7.692;2023-05-19T08:45:25;98445.47;;;18.02;nan
9474;BME280;8865;47.636;7.692;2023-05-19T08:47:51;98441.16;;;18.24;nan
9474;BME280;8865;47.636;7.692;2023-05-19T08:50:23;98442.53;;;18.43;nan
9474;BME280;8865;47.636;7.692;2023-05-19T08:53:17;98436.69;;;18.86;nan
9474;BME280;8865;47.636;7.692;2023-05-19T08:56:00;98440.56;;;19.13;nan
9474;BME280;8865;47.636;7.692;2023-05-19T08:58:26;98434.53;;;19.49;nan
9474;BME280;8865;47.636;7.692;2023-05-19T09:00:54;98438.28;;;19.40;nan
9474;BME280;8865;47.636;7.692;2023-05-19T09:03:22;98443.41;;;19.41;nan
9474;BME280;8865;47.636;7.692;2023-05-19T09:05:48;98445.28;;;19.62;nan
9474;BME280;8865;47.636;7.692;2023-05-19T09:08:15;98436.56;;;19.69;nan
9474;BME280;8865;47.636;7.692;2023-05-19T09:10:41;98433.66;;;19.63;nan
9474;BME280;8865;47.636;7.692;2023-05-19T09:13:07;98433.03;;;19.61;nan
9474;BME280;8865;47.636;7.692;2023-05-19T09:15:34;98436.13;;;19.65;nan
9474;BME280;8865;47.636;7.692;2023-05-19T09:18:11;98437.50;;;19.61;nan
9474;BME280;8865;47.636;7.692;2023-05-19T09:20:42;98429.31;;;19.92;nan
9474;BME280;8865;47.636;7.692;2023-05-19T09:23:16;98435.44;;;19.93;nan
9474;BME280;8865;47.636;7.692;2023-05-19T09:25:50;98432.13;;;19.54;nan
9474;BME280;8865;47.636;7.692;2023-05-19T09:28:23;98425.19;;;19.75;nan
9474;BME280;8865;47.636;7.692;2023-05-19T09:31:04;98429.53;;;20.34;nan
9474;BME280;8865;47.636;7.692;2023-05-19T09:33:35;98434.00;;;20.55;nan
9474;BME280;8865;47.636;7.692;2023-05-19T09:36:02;98425.91;;;20.42;nan
9474;BME280;8865;47.636;7.692;2023-05-19T09:38:31;98428.31;;;20.58;nan
9474;BME280;8865;47.636;7.692;2023-05-19T09:40:58;98416.88;;;21.21;nan
9474;BME280;8865;47.636;7.692;2023-05-19T09:43:28;98418.66;;;21.49;nan
9474;BME280;8865;47.636;7.692;2023-05-19T09:46:09;98420.53;;;21.55;nan
9474;BME280;8865;47.636;7.692;2023-05-19T09:48:38;98419.00;;;21.39;nan
9474;BME280;8865;47.636;7.692;2023-05-19T09:51:06;98421.94;;;21.16;nan
9474;BME280;8865;47.636;7.692;2023-05-19T09:53:35;98417.19;;;20.76;nan
9474;BME280;8865;47.636;7.692;2023-05-19T09:56:01;98424.59;;;20.59;nan
9474;BME280;8865;47.636;7.692;2023-05-19T09:58:32;98417.41;;;20.53;nan
9474;BME280;8865;47.636;7.692;2023-05-19T10:01:02;98424.31;;;20.97;nan
9474;BME280;8865;47.636;7.692;2023-05-19T10:03:29;98418.91;;;21.61;nan
9474;BME280;8865;47.636;7.692;2023-05-19T10:05:59;98414.56;;;22.15;nan
9474;BME280;8865;47.636;7.692;2023-05-19T10:08:27;98417.06;;;22.76;nan
9474;BME280;8865;47.636;7.692;2023-05-19T10:10:55;98409.44;;;22.80;nan
9474;BME280;8865;47.636;7.692;2023-05-19T10:13:22;98409.66;;;22.72;nan
9474;BME280;8865;47.636;7.692;2023-05-19T10:15:48;98406.34;;;22.90;nan
9474;BME280;8865;47.636;7.692;2023-05-19T10:18:16;98404.16;;;23.45;nan
9474;BME280;8865;47.636;7.692;2023-05-19T10:20:43;98404.00;;;23.79;nan
9474;BME280;8865;47.636;7.692;2023-05-19T10:23:09;98403.75;;;23.94;nan
9474;BME280;8865;47.636;7.692;2023-05-19T10:25:36;98399.22;;;24.76;nan
9474;BME280;8865;47.636;7.692;2023-05-19T10:28:06;98388.59;;;26.35;nan
9474;BME280;8865;47.636;7.692;2023-05-19T10:30:38;98391.47;;;27.80;nan
9474;BME280;8865;47.636;7.692;2023-05-19T10:33:09;98385.09;;;28.83;nan
9474;BME280;8865;47.636;7.692;2023-05-19T10:40:58;98377.06;;;28.89;nan
9474;BME280;8865;47.636;7.692;2023-05-19T10:43:43;98383.38;;;28.09;nan
9474;BME280;8865;47.636;7.692;2023-05-19T10:46:11;98380.88;;;27.33;nan
9474;BME280;8865;47.636;7.692;2023-05-19T10:48:43;98385.47;;;26.50;nan
9474;BME280;8865;47.636;7.692;2023-05-19T10:51:10;98383.06;;;25.76;nan
9474;BME280;8865;47.636;7.692;2023-05-19T10:53:40;98389.19;;;25.09;nan
9474;BME280;8865;47.636;7.692;2023-05-19T10:56:11;98386.47;;;24.21;nan
9474;BME280;8865;47.636;7.692;2023-05-19T10:58:53;98387.53;;;23.88;nan
9474;BME280;8865;47.636;7.692;2023-05-19T11:01:19;98384.41;;;23.46;nan
9474;BME280;8865;47.636;7.692;2023-05-19T11:03:53;98392.56;;;22.99;nan
9474;BME280;8865;47.636;7.692;2023-05-19T11:06:29;98392.00;;;22.64;nan
9474;BME280;8865;47.636;7.692;2023-05-19T11:09:02;98386.47;;;22.39;nan
9474;BME280;8865;47.636;7.692;2023-05-19T11:11:53;98389.50;;;22.09;nan
9474;BME280;8865;47.636;7.692;2023-05-19T11:14:21;98386.41;;;22.05;nan
9474;BME280;8865;47.636;7.692;2023-05-19T11:16:49;98384.53;;;21.92;nan
9474;BME280;8865;47.636;7.692;2023-05-19T11:19:17;98391.50;;;21.80;nan
9474;BME280;8865;47.636;7.692;2023-05-19T11:21:51;98387.06;;;21.46;nan
9474;BME280;8865;47.636;7.692;2023-05-19T11:24:36;98384.84;;;21.49;nan
9474;BME280;8865;47.636;7.692;2023-05-19T11:29:51;98387.84;;;21.39;nan
9474;BME280;8865;47.636;7.692;2023-05-19T11:32:19;98379.41;;;21.36;nan
9474;BME280;8865;47.636;7.692;2023-05-19T11:34:46;98379.88;;;21.46;nan
9474;BME280;8865;47.636;7.692;2023-05-19T11:37:13;98382.44;;;21.68;nan
9474;BME280;8865;47.636;7.692;2023-05-19T11:39:39;98374.28;;;21.83;nan
9474;BME280;8865;47.636;7.692;2023-05-19T11:42:07;98375.13;;;21.97;nan
9474;BME280;8865;47.636;7.692;2023-05-19T11:44:35;98378.59;;;21.97;nan
9474;BME280;8865;47.636;7.692;2023-05-19T11:47:01;98367.34;;;22.15;nan
9474;BME280;8865;47.636;7.692;2023-05-19T11:49:28;98364.06;;;22.13;nan
9474;BME280;8865;47.636;7.692;2023-05-19T11:51:54;98366.34;;;22.16;nan
9474;BME280;8865;47.636;7.692;2023-05-19T11:54:20;98359.16;;;21.35;nan
9474;BME280;8865;47.636;7.692;2023-05-19T11:56:46;98357.13;;;21.02;nan
9474;BME280;8865;47.636;7.692;2023-05-19T11:59:12;98357.34;;;21.00;nan
9474;BME280;8865;47.636;7.692;2023-05-19T12:01:38;98349.91;;;20.89;nan
9474;BME280;8865;47.636;7.692;2023-05-19T12:04:08;98350.09;;;20.87;nan
9474;BME280;8865;47.636;7.692;2023-05-19T12:06:35;98355.66;;;20.93;nan
9474;BME280;8865;47.636;7.692;2023-05-19T12:09:04;98354.44;;;20.95;nan
9474;BME280;8865;47.636;7.692;2023-05-19T12:11:30;98360.88;;;21.08;nan
9474;BME280;8865;47.636;7.692;2023-05-19T12:13:57;98354.53;;;21.15;nan
9474;BME280;8865;47.636;7.692;2023-05-19T12:16:34;98368.81;;;21.43;nan
9474;BME280;8865;47.636;7.692;2023-05-19T12:19:01;98354.16;;;21.73;nan
9474;BME280;8865;47.636;7.692;2023-05-19T12:21:30;98353.78;;;21.97;nan
9474;BME280;8865;47.636;7.692;2023-05-19T12:26:22;98352.34;;;22.01;nan
9474;BME280;8865;47.636;7.692;2023-05-19T12:32:11;98352.34;;;22.01;nan
9474;BME280;8865;47.636;7.692;2023-05-19T12:34:37;98353.56;;;21.91;nan
9474;BME280;8865;47.636;7.692;2023-05-19T12:37:04;98349.25;;;21.77;nan
9474;BME280;8865;47.636;7.692;2023-05-19T12:39:31;98353.16;;;21.81;nan
9474;BME280;8865;47.636;7.692;2023-05-19T12:42:02;98353.13;;;21.68;nan
9474;BME280;8865;47.636;7.692;2023-05-19T12:44:29;98363.69;;;21.48;nan
9474;BME280;8865;47.636;7.692;2023-05-19T12:46:57;98354.31;;;21.52;nan
9474;BME280;8865;47.636;7.692;2023-05-19T12:49:24;98352.56;;;21.37;nan
9474;BME280;8865;47.636;7.692;2023-05-19T12:51:51;98345.19;;;21.33;nan
9474;BME280;8865;47.636;7.692;2023-05-19T12:54:19;98340.81;;;21.12;nan
9474;BME280;8865;47.636;7.692;2023-05-19T12:56:50;98337.78;;;21.21;nan
9474;BME280;8865;47.636;7.692;2023-05-19T12:59:23;98341.72;;;21.39;nan
9474;BME280;8865;47.636;7.692;2023-05-19T13:01:57;98333.22;;;21.64;nan
9474;BME280;8865;47.636;7.692;2023-05-19T13:04:27;98328.53;;;21.86;nan
9474;BME280;8865;47.636;7.692;2023-05-19T13:06:53;98330.81;;;21.89;nan
9474;BME280;8865;47.636;7.692;2023-05-19T13:09:19;98326.47;;;21.74;nan
9474;BME280;8865;47.636;7.692;2023-05-19T13:11:46;98332.59;;;21.68;nan
9474;BME280;8865;47.636;7.692;2023-05-19T13:14:19;98331.94;;;21.53;nan
9474;BME280;8865;47.636;7.692;2023-05-19T13:16:45;98334.00;;;21.51;nan
9474;BME280;8865;47.636;7.692;2023-05-19T13:19:17;98335.19;;;21.48;nan
9474;BME280;8865;47.636;7.692;2023-05-19T13:21:44;98326.59;;;21.46;nan
9474;BME280;8865;47.636;7.692;2023-05-19T13:24:12;98330.91;;;21.47;nan
9474;BME280;8865;47.636;7.692;2023-05-19T13:26:39;98326.38;;;21.48;nan
9474;BME280;8865;47.636;7.692;2023-05-19T13:29:06;98325.72;;;21.32;nan
9474;BME280;8865;47.636;7.692;2023-05-19T13:31:32;98324.19;;;21.03;nan
9474;BME280;8865;47.636;7.692;2023-05-19T13:33:58;98325.09;;;20.82;nan
9474;BME280;8865;47.636;7.692;2023-05-19T13:36:25;98322.53;;;20.67;nan
9474;BME280;8865;47.636;7.692;2023-05-19T13:38:53;98331.81;;;20.49;nan
9474;BME280;8865;47.636;7.692;2023-05-19T13:41:23;98329.06;;;20.36;nan
9474;BME280;8865;47.636;7.692;2023-05-19T13:43:51;98327.56;;;20.27;nan
9474;BME280;8865;47.636;7.692;2023-05-19T13:46:18;98323.84;;;20.21;nan
9474;BME280;8865;47.636;7.692;2023-05-19T13:48:44;98333.13;;;20.32;nan
9474;BME280;8865;47.636;7.692;2023-05-19T13:51:10;98328.81;;;20.31;nan
9474;BME280;8865;47.636;7.692;2023-05-19T13:53:36;98330.47;;;20.32;nan
9474;BME280;8865;47.636;7.692;2023-05-19T13:56:04;98326.75;;;20.26;nan
9474;BME280;8865;47.636;7.692;2023-05-19T13:58:30;98327.75;;;20.25;nan
9474;BME280;8865;47.636;7.692;2023-05-19T14:00:56;98326.75;;;20.26;nan
9474;BME280;8865;47.636;7.692;2023-05-19T14:03:25;98326.72;;;20.20;nan
9474;BME280;8865;47.636;7.692;2023-05-19T14:05:51;98322.34;;;20.12;nan
9474;BME280;8865;47.636;7.692;2023-05-19T14:08:17;98325.50;;;20.01;nan
9474;BME280;8865;47.636;7.692;2023-05-19T14:10:47;98322.59;;;19.95;nan
9474;BME280;8865;47.636;7.692;2023-05-19T14:13:13;98319.69;;;19.90;nan
9474;BME280;8865;47.636;7.692;2023-05-19T14:15:39;98323.00;;;19.92;nan
9474;BME280;8865;47.636;7.692;2023-05-19T14:18:05;98317.09;;;19.97;nan
9474;BME280;8865;47.636;7.692;2023-05-19T14:20:31;98318.28;;;19.94;nan
9474;BME280;8865;47.636;7.692;2023-05-19T14:22:57;98321.56;;;19.96;nan
9474;BME280;8865;47.636;7.692;2023-05-19T14:25:23;98317.91;;;19.97;nan
9474;BME280;8865;47.636;7.692;2023-05-19T14:27:49;98323.22;;;19.97;nan
9474;BME280;8865;47.636;7.692;2023-05-19T14:30:16;98317.53;;;20.01;nan
9474;BME280;8865;47.636;7.692;2023-05-19T14:32:43;98314.88;;;20.01;nan
9474;BME280;8865;47.636;7.692;2023-05-19T14:35:09;98317.91;;;19.97;nan
9474;BME280;8865;47.636;7.692;2023-05-19T14:37:35;98308.84;;;19.92;nan
9474;BME280;8865;47.636;7.692;2023-05-19T14:40:01;98308.44;;;19.52;nan
9474;BME280;8865;47.636;7.692;2023-05-19T14:42:29;98309.13;;;19.39;nan
9474;BME280;8865;47.636;7.692;2023-05-19T14:44:55;98304.72;;;19.46;nan
9474;BME280;8865;47.636;7.692;2023-05-19T14:47:21;98310.69;;;18.97;nan
9474;BME280;8865;47.636;7.692;2023-05-19T14:49:47;98320.25;;;18.83;nan
9474;BME280;8865;47.636;7.692;2023-05-19T14:52:13;98317.41;;;18.84;nan
9474;BME280;8865;47.636;7.692;2023-05-19T14:54:39;98318.63;;;18.67;nan
9474;BME280;8865;47.636;7.692;2023-05-19T14:57:05;98316.50;;;18.47;nan
9474;BME280;8865;47.636;7.692;2023-05-19T14:59:36;98320.91;;;18.40;nan
9474;BME280;8865;47.636;7.692;2023-05-19T15:02:02;98323.56;;;18.40;nan
9474;BME280;8865;47.636;7.692;2023-05-19T15:04:28;98322.81;;;18.46;nan
9474;BME280;8865;47.636;7.692;2023-05-19T15:06:54;98318.97;;;18.49;nan
9474;BME280;8865;47.636;7.692;2023-05-19T15:09:22;98319.03;;;18.26;nan
9474;BME280;8865;47.636;7.692;2023-05-19T15:11:48;98309.44;;;18.25;nan
9474;BME280;8865;47.636;7.692;2023-05-19T15:14:14;98315.19;;;18.28;nan
9474;BME280;8865;47.636;7.692;2023-05-19T15:16:40;98313.28;;;18.22;nan
9474;BME280;8865;47.636;7.692;2023-05-19T15:19:06;98309.63;;;18.23;nan
9474;BME280;8865;47.636;7.692;2023-05-19T15:21:32;98306.44;;;18.28;nan
9474;BME280;8865;47.636;7.692;2023-05-19T15:23:58;98308.63;;;18.39;nan
9474;BME280;8865;47.636;7.692;2023-05-19T15:26:24;98315.41;;;18.42;nan
9474;BME280;8865;47.636;7.692;2023-05-19T15:28:51;98312.19;;;18.31;nan
9474;BME280;8865;47.636;7.692;2023-05-19T15:31:17;98313.94;;;18.39;nan
9474;BME280;8865;47.636;7.692;2023-05-19T15:33:43;98309.16;;;18.19;nan
9474;BME280;8865;47.636;7.692;2023-05-19T15:36:09;98306.44;;;18.28;nan
9474;BME280;8865;47.636;7.692;2023-05-19T15:38:40;98308.97;;;18.21;nan
9474;BME280;8865;47.636;7.692;2023-05-19T15:41:07;98313.44;;;18.20;nan
9474;BME280;8865;47.636;7.692;2023-05-19T15:43:33;98310.03;;;18.12;nan
9474;BME280;8865;47.636;7.692;2023-05-19T15:45:59;98306.66;;;18.18;nan
9474;BME280;8865;47.636;7.692;2023-05-19T15:48:25;98313.09;;;18.24;nan
9474;BME280;8865;47.636;7.692;2023-05-19T15:50:53;98314.38;;;18.28;nan
9474;BME280;8865;47.636;7.692;2023-05-19T15:53:19;98311.81;;;18.34;nan
9474;BME280;8865;47.636;7.692;2023-05-19T15:55:46;98314.66;;;18.33;nan
9474;BME280;8865;47.636;7.692;2023-05-19T15:58:12;98306.13;;;18.23;nan
9474;BME280;8865;47.636;7.692;2023-05-19T16:00:39;98309.66;;;18.00;nan
9474;BME280;8865;47.636;7.692;2023-05-19T16:03:05;98308.81;;;17.99;nan
9474;BME280;8865;47.636;7.692;2023-05-19T16:05:31;98310.38;;;17.94;nan
9474;BME280;8865;47.636;7.692;2023-05-19T16:07:57;98310.03;;;18.12;nan
9474;BME280;8865;47.636;7.692;2023-05-19T16:10:23;98308.38;;;17.96;nan
9474;BME280;8865;47.636;7.692;2023-05-19T16:12:50;98296.06;;;18.03;nan
9474;BME280;8865;47.636;7.692;2023-05-19T16:15:16;98294.22;;;18.03;nan
9474;BME280;8865;47.636;7.692;2023-05-19T16:17:42;98293.94;;;17.98;nan
9474;BME280;8865;47.636;7.692;2023-05-19T16:20:08;98298.94;;;17.93;nan
9474;BME280;8865;47.636;7.692;2023-05-19T16:22:34;98296.41;;;18.00;nan
9474;BME280;8865;47.636;7.692;2023-05-19T16:25:00;98297.78;;;17.96;nan
9474;BME280;8865;47.636;7.692;2023-05-19T16:27:26;98303.69;;;17.98;nan
9474;BME280;8865;47.636;7.692;2023-05-19T16:29:54;98297.97;;;17.86;nan
9474;BME280;8865;47.636;7.692;2023-05-19T16:32:20;98297.97;;;17.63;nan
9474;BME280;8865;47.636;7.692;2023-05-19T16:34:46;98297.50;;;17.59;nan
9474;BME280;8865;47.636;7.692;2023-05-19T16:37:11;98298.50;;;17.58;nan
9474;BME280;8865;47.636;7.692;2023-05-19T16:39:37;98293.63;;;17.70;nan
9474;BME280;8865;47.636;7.692;2023-05-19T16:42:04;98292.28;;;17.74;nan
9474;BME280;8865;47.636;7.692;2023-05-19T16:44:30;98300.69;;;17.55;nan
9474;BME280;8865;47.636;7.692;2023-05-19T16:46:56;98299.56;;;17.72;nan
9474;BME280;8865;47.636;7.692;2023-05-19T16:49:22;98307.66;;;17.79;nan
9474;BME280;8865;47.636;7.692;2023-05-19T16:51:48;98294.22;;;17.80;nan
9474;BME280;8865;47.636;7.692;2023-05-19T16:54:14;98296.34;;;17.85;nan
9474;BME280;8865;47.636;7.692;2023-05-19T16:56:40;98296.50;;;17.83;nan
9474;BME280;8865;47.636;7.692;2023-05-19T16:59:08;98295.22;;;17.79;nan
9474;BME280;8865;47.636;7.692;2023-05-19T17:01:34;98296.69;;;17.82;nan
9474;BME280;8865;47.636;7.692;2023-05-19T17:04:00;98299.88;;;17.77;nan
9474;BME280;8865;47.636;7.692;2023-05-19T17:06:26;98306.97;;;17.77;nan
9474;BME280;8865;47.636;7.692;2023-05-19T17:08:52;98307.16;;;17.75;nan
9474;BME280;8865;47.636;7.692;2023-05-19T17:11:17;98305.69;;;17.49;nan
9474;BME280;8865;47.636;7.692;2023-05-19T17:13:44;98304.91;;;17.41;nan
9474;BME280;8865;47.636;7.692;2023-05-19T17:16:10;98305.84;;;17.25;nan
9474;BME280;8865;47.636;7.692;2023-05-19T17:18:36;98309.59;;;17.30;nan
9474;BME280;8865;47.636;7.692;2023-05-19T17:21:02;98302.50;;;17.31;nan
9474;BME280;8865;47.636;7.692;2023-05-19T17:23:30;98309.06;;;17.35;nan
9474;BME280;8865;47.636;7.692;2023-05-19T17:25:57;98303.59;;;17.37;nan
9474;BME280;8865;47.636;7.692;2023-05-19T17:28:23;98296.50;;;17.37;nan
9474;BME280;8865;47.636;7.692;2023-05-19T17:30:49;98302.69;;;17.29;nan
9474;BME280;8865;47.636;7.692;2023-05-19T17:33:15;98301.47;;;17.32;nan
9474;BME280;8865;47.636;7.692;2023-05-19T17:35:41;98294.38;;;17.33;nan
9474;BME280;8865;47.636;7.692;2023-05-19T17:38:07;98297.84;;;17.33;nan
9474;BME280;8865;47.636;7.692;2023-05-19T17:40:34;98303.31;;;17.31;nan
9474;BME280;8865;47.636;7.692;2023-05-19T17:43:01;98305.16;;;17.31;nan
9474;BME280;8865;47.636;7.692;2023-05-19T17:45:27;98305.50;;;17.28;nan
9474;BME280;8865;47.636;7.692;2023-05-19T17:47:53;98302.53;;;17.23;nan
9474;BME280;8865;47.636;7.692;2023-05-19T17:50:19;98301.72;;;17.22;nan
9474;BME280;8865;47.636;7.692;2023-05-19T17:52:45;98307.91;;;17.06;nan
9474;BME280;8865;47.636;7.692;2023-05-19T17:55:12;98308.75;;;17.07;nan
9474;BME280;8865;47.636;7.692;2023-05-19T17:57:39;98312.38;;;17.06;nan
9474;BME280;8865;47.636;7.692;2023-05-19T18:00:08;98308.84;;;17.13;nan
9474;BME280;8865;47.636;7.692;2023-05-19T18:02:35;98307.13;;;16.98;nan
9474;BME280;8865;47.636;7.692;2023-05-19T18:05:01;98315.22;;;16.96;nan
9474;BME280;8865;47.636;7.692;2023-05-19T18:07:29;98319.56;;;16.81;nan
9474;BME280;8865;47.636;7.692;2023-05-19T18:09:58;98324.34;;;16.85;nan
9474;BME280;8865;47.636;7.692;2023-05-19T18:12:25;98318.91;;;16.87;nan
9474;BME280;8865;47.636;7.692;2023-05-19T18:14:51;98317.56;;;16.91;nan
9474;BME280;8865;47.636;7.692;2023-05-19T18:17:17;98322.50;;;16.86;nan
9474;BME280;8865;47.636;7.692;2023-05-19T18:19:43;98315.75;;;16.91;nan
9474;BME280;8865;47.636;7.692;2023-05-19T18:22:09;98316.03;;;16.96;nan
9474;BME280;8865;47.636;7.692;2023-05-19T18:24:37;98325.69;;;16.89;nan
9474;BME280;8865;47.636;7.692;2023-05-19T18:27:03;98322.22;;;16.81;nan
9474;BME280;8865;47.636;7.692;2023-05-19T18:29:29;98326.84;;;16.70;nan
9474;BME280;8865;47.636;7.692;2023-05-19T18:31:55;98316.97;;;16.64;nan
9474;BME280;8865;47.636;7.692;2023-05-19T18:34:21;98324.25;;;16.62;nan
9474;BME280;8865;47.636;7.692;2023-05-19T18:36:47;98330.72;;;16.51;nan
9474;BME280;8865;47.636;7.692;2023-05-19T18:39:13;98329.91;;;16.26;nan
9474;BME280;8865;47.636;7.692;2023-05-19T18:41:39;98333.06;;;16.21;nan
9474;BME280;8865;47.636;7.692;2023-05-19T18:44:07;98327.94;;;16.28;nan
9474;BME280;8865;47.636;7.692;2023-05-19T18:46:33;98326.63;;;16.24;nan
9474;BME280;8865;47.636;7.692;2023-05-19T18:48:59;98329.41;;;16.31;nan
